Time,TemperatureF,DewpointF,PressureIn,WindDirection,WindDirectionDegrees,WindSpeedMPH,WindSpeedGustMPH,Humidity,HourlyPrecipIn,Conditions,Clouds,dailyrainin,SoftwareType,DateUTC
2013-03-22 14:22:00,68.1,59.5,29.77,SSE,159,2.0,2.0,74,0.00,,---,0.00,VWS V14.01,2013-03-22 19:22:00,
2013-03-22 14:27:00,67.9,58.9,29.77,ESE,117,0.0,3.0,73,14.04,,---,0.00,VWS V14.01,2013-03-22 19:27:00,
2013-03-22 14:32:00,67.6,59.4,29.77,SE,139,0.0,3.0,75,14.04,,---,0.00,VWS V14.01,2013-03-22 19:32:00,
2013-03-22 14:37:00,66.9,60.5,29.76,SE,128,0.0,3.0,80,0.01,,---,0.01,VWS V14.01,2013-03-22 19:37:00,
2013-03-22 14:42:00,65.6,60.3,29.77,SE,129,0.0,3.0,83,0.01,,---,0.01,VWS V14.01,2013-03-22 19:42:00,
2013-03-22 14:47:00,64.8,60.8,29.77,SE,129,0.0,3.0,87,0.01,,---,0.01,VWS V14.01,2013-03-22 19:47:00,
2013-03-22 14:52:00,64.5,61.2,29.77,SE,128,0.0,3.0,89,0.01,,---,0.01,VWS V14.01,2013-03-22 19:52:00,
2013-03-22 14:57:00,64.0,60.7,29.77,SE,124,0.0,3.0,89,0.01,,---,0.01,VWS V14.01,2013-03-22 19:57:00,
2013-03-22 15:02:00,63.7,60.7,29.77,NW,319,0.0,3.0,90,0.01,,---,0.01,VWS V14.01,2013-03-22 20:02:00,
2013-03-22 15:07:00,63.3,60.3,29.77,East,82,0.0,3.0,90,0.01,,---,0.01,VWS V14.01,2013-03-22 20:07:00,
2013-03-22 15:12:00,63.0,60.0,29.77,East,82,0.0,3.0,90,0.01,,---,0.01,VWS V14.01,2013-03-22 20:12:00,
2013-03-22 15:17:00,62.8,59.8,29.76,East,85,0.0,3.0,90,0.01,,---,0.01,VWS V14.01,2013-03-22 20:17:00,
2013-03-22 15:22:00,63.1,59.8,29.76,ESE,117,0.0,3.0,89,0.01,,---,0.01,VWS V14.01,2013-03-22 20:22:00,
2013-03-22 15:27:00,63.3,60.0,29.76,ESE,117,0.0,3.0,89,0.01,,---,0.01,VWS V14.01,2013-03-22 20:27:00,
2013-03-22 15:32:00,63.3,60.0,29.76,ESE,111,0.0,3.0,89,0.01,,---,0.01,VWS V14.01,2013-03-22 20:32:00,
2013-03-22 15:37:00,63.7,60.4,29.76,SE,131,2.0,2.0,89,0.01,,---,0.01,VWS V14.01,2013-03-22 20:37:00,
2013-03-22 15:42:00,64.1,60.5,29.76,ESE,121,0.0,5.0,88,0.01,,---,0.01,VWS V14.01,2013-03-22 20:42:00,
2013-03-22 15:47:00,64.3,60.3,29.76,East,88,0.0,5.0,87,0.01,,---,0.01,VWS V14.01,2013-03-22 20:47:00,
2013-03-22 15:52:00,64.2,60.3,29.76,East,87,0.0,5.0,87,0.01,,---,0.01,VWS V14.01,2013-03-22 20:52:00,
2013-03-22 15:57:00,64.1,60.2,29.75,ESE,108,0.0,5.0,87,0.02,,---,0.02,VWS V14.01,2013-03-22 20:57:00,
2013-03-22 16:02:00,63.7,60.4,29.75,ESE,108,0.0,5.0,89,0.02,,---,0.02,VWS V14.01,2013-03-22 21:02:00,
2013-03-22 16:08:00,63.5,60.8,29.75,East,99,0.0,1.0,91,0.01,,---,0.02,VWS V14.01,2013-03-22 21:08:00,
2013-03-22 16:12:00,63.7,61.0,29.75,ESE,103,0.0,2.0,91,0.01,,---,0.02,VWS V14.01,2013-03-22 21:12:00,
2013-03-22 16:17:00,63.9,61.2,29.75,West,281,0.0,3.0,91,0.01,,---,0.02,VWS V14.01,2013-03-22 21:17:00,
2013-03-22 16:22:00,64.1,61.1,29.74,SE,127,0.0,3.0,90,0.01,,---,0.02,VWS V14.01,2013-03-22 21:22:00,
2013-03-22 16:27:00,64.4,61.1,29.74,East,101,0.0,3.0,89,0.01,,---,0.02,VWS V14.01,2013-03-22 21:27:00,
2013-03-22 16:32:00,64.7,61.1,29.74,SE,135,0.0,3.0,88,0.01,,---,0.02,VWS V14.01,2013-03-22 21:32:00,
2013-03-22 16:37:00,64.8,60.8,29.74,SE,135,0.0,5.0,87,0.01,,---,0.02,VWS V14.01,2013-03-22 21:37:00,
2013-03-22 16:42:00,64.8,60.5,29.74,ESE,122,1.0,5.0,86,0.01,,---,0.02,VWS V14.01,2013-03-22 21:42:00,
2013-03-22 16:47:00,64.6,60.3,29.74,East,92,0.0,5.0,86,0.01,,---,0.02,VWS V14.01,2013-03-22 21:47:00,
2013-03-22 16:52:00,64.4,60.8,29.74,East,92,0.0,5.0,88,0.01,,---,0.02,VWS V14.01,2013-03-22 21:52:00,
2013-03-22 16:57:00,64.5,60.5,29.74,ENE,77,2.0,5.0,87,0.01,,---,0.02,VWS V14.01,2013-03-22 21:57:00,
2013-03-22 17:02:00,64.7,60.8,29.74,SE,130,0.0,5.0,87,0.01,,---,0.02,VWS V14.01,2013-03-22 22:02:00,
2013-03-22 17:07:00,64.9,60.6,29.74,ESE,112,0.0,1.0,86,0.00,,---,0.02,VWS V14.01,2013-03-22 22:07:00,
2013-03-22 17:12:00,65.0,61.0,29.74,ESE,105,0.0,2.0,87,0.00,,---,0.02,VWS V14.01,2013-03-22 22:12:00,
2013-03-22 17:17:00,64.9,60.3,29.74,North,356,0.0,5.0,85,0.00,,---,0.02,VWS V14.01,2013-03-22 22:17:00,
2013-03-22 17:22:00,64.9,60.6,29.74,SE,124,1.0,5.0,86,0.00,,---,0.02,VWS V14.01,2013-03-22 22:22:00,
2013-03-22 17:27:00,64.8,60.5,29.75,East,101,0.0,5.0,86,0.00,,---,0.02,VWS V14.01,2013-03-22 22:27:00,
2013-03-22 17:32:00,64.7,60.4,29.75,NNE,26,0.0,5.0,86,0.00,,---,0.02,VWS V14.01,2013-03-22 22:32:00,
2013-03-22 17:37:00,64.7,60.4,29.75,North,352,0.0,1.0,86,0.00,,---,0.02,VWS V14.01,2013-03-22 22:37:00,
2013-03-22 17:43:00,64.5,60.2,29.75,SE,143,0.0,2.0,86,0.00,,---,0.02,VWS V14.01,2013-03-22 22:43:00,
2013-03-22 17:48:00,64.5,60.2,29.75,ESE,108,0.0,3.0,86,0.00,,---,0.02,VWS V14.01,2013-03-22 22:48:00,
2013-03-22 17:53:00,64.5,59.9,29.75,ESE,108,0.0,3.0,85,0.00,,---,0.02,VWS V14.01,2013-03-22 22:53:00,
2013-03-22 17:58:00,64.5,60.2,29.75,ESE,103,2.0,6.0,86,0.00,,---,0.02,VWS V14.01,2013-03-22 22:58:00,
2013-03-22 18:03:00,64.6,60.3,29.75,East,85,0.0,6.0,86,0.00,,---,0.02,VWS V14.01,2013-03-22 23:03:00,
2013-03-22 18:08:00,64.5,59.9,29.75,ENE,57,0.0,1.0,85,0.00,,---,0.02,VWS V14.01,2013-03-22 23:08:00,
2013-03-22 18:13:00,64.4,60.1,29.75,East,79,0.0,1.0,86,0.00,,---,0.02,VWS V14.01,2013-03-22 23:13:00,
2013-03-22 18:18:00,64.3,59.7,29.75,East,95,0.0,2.0,85,0.00,,---,0.02,VWS V14.01,2013-03-22 23:18:00,
2013-03-22 18:22:00,64.3,59.7,29.75,SE,126,0.0,2.0,85,0.00,,---,0.02,VWS V14.01,2013-03-22 23:22:00,
2013-03-22 18:27:00,64.3,59.7,29.75,SE,127,0.0,2.0,85,0.00,,---,0.02,VWS V14.01,2013-03-22 23:27:00,
2013-03-22 18:32:00,64.2,59.9,29.75,SE,127,0.0,2.0,86,0.00,,---,0.02,VWS V14.01,2013-03-22 23:32:00,
2013-03-22 18:37:00,64.1,59.8,29.75,East,87,0.0,1.0,86,0.00,,---,0.02,VWS V14.01,2013-03-22 23:37:00,
2013-03-22 18:42:00,64.1,59.8,29.76,East,79,0.0,1.0,86,0.00,,---,0.02,VWS V14.01,2013-03-22 23:42:00,
2013-03-22 18:47:00,64.2,59.9,29.76,ESE,103,0.0,1.0,86,0.00,,---,0.02,VWS V14.01,2013-03-22 23:47:00,
2013-03-22 18:52:00,64.1,59.8,29.76,ESE,103,0.0,1.0,86,0.00,,---,0.02,VWS V14.01,2013-03-22 23:52:00,
2013-03-22 18:57:00,63.9,59.6,29.76,ESE,112,0.0,1.0,86,0.00,,---,0.02,VWS V14.01,2013-03-22 23:57:00,
2013-03-22 19:02:00,63.9,59.6,29.76,ESE,120,1.0,2.0,86,0.00,,---,0.02,VWS V14.01,2013-03-23 00:02:00,
2013-03-22 19:07:00,64.0,59.7,29.76,SE,134,0.0,4.0,86,0.00,,---,0.02,VWS V14.01,2013-03-23 00:07:00,
2013-03-22 19:12:00,64.0,59.7,29.75,ESE,108,0.0,4.0,86,0.00,,---,0.02,VWS V14.01,2013-03-23 00:12:00,
2013-03-22 19:17:00,63.9,59.6,29.76,ESE,117,0.0,4.0,86,0.00,,---,0.02,VWS V14.01,2013-03-23 00:17:00,
2013-03-22 19:22:00,63.9,59.6,29.75,SE,127,1.0,4.0,86,0.00,,---,0.02,VWS V14.01,2013-03-23 00:22:00,
2013-03-22 19:27:00,63.9,59.6,29.75,East,88,0.0,4.0,86,0.00,,---,0.02,VWS V14.01,2013-03-23 00:27:00,
2013-03-22 19:32:00,63.9,59.6,29.75,East,79,1.0,4.0,86,0.00,,---,0.02,VWS V14.01,2013-03-23 00:32:00,
2013-03-22 19:37:00,63.8,59.5,29.75,SE,125,0.0,1.0,86,0.00,,---,0.02,VWS V14.01,2013-03-23 00:37:00,
2013-03-22 19:42:00,63.9,59.6,29.76,ESE,111,0.0,2.0,86,0.00,,---,0.02,VWS V14.01,2013-03-23 00:42:00,
2013-03-22 19:47:00,63.9,59.6,29.76,ESE,122,0.0,4.0,86,0.00,,---,0.02,VWS V14.01,2013-03-23 00:47:00,
2013-03-22 19:52:00,63.9,59.6,29.75,ENE,75,0.0,4.0,86,0.00,,---,0.02,VWS V14.01,2013-03-23 00:52:00,
2013-03-22 19:57:00,63.9,59.6,29.76,ESE,115,0.0,4.0,86,0.00,,---,0.02,VWS V14.01,2013-03-23 00:57:00,
2013-03-22 20:02:00,63.9,59.6,29.75,East,81,0.0,4.0,86,0.00,,---,0.02,VWS V14.01,2013-03-23 01:02:00,
2013-03-22 20:07:00,63.8,59.5,29.76,East,81,0.0,3.0,86,0.00,,---,0.02,VWS V14.01,2013-03-23 01:07:00,
2013-03-22 20:12:00,63.9,59.6,29.76,East,91,1.0,5.0,86,0.00,,---,0.02,VWS V14.01,2013-03-23 01:12:00,
2013-03-22 20:17:00,63.8,59.9,29.76,East,98,0.0,5.0,87,0.00,,---,0.02,VWS V14.01,2013-03-23 01:17:00,
2013-03-22 20:22:00,63.8,59.5,29.76,ESE,116,0.0,5.0,86,0.00,,---,0.02,VWS V14.01,2013-03-23 01:22:00,
2013-03-22 20:27:00,63.8,59.9,29.76,ESE,123,1.0,5.0,87,0.00,,---,0.02,VWS V14.01,2013-03-23 01:27:00,
2013-03-22 20:32:00,63.8,59.9,29.76,ESE,116,0.0,5.0,87,0.00,,---,0.02,VWS V14.01,2013-03-23 01:32:00,
2013-03-22 20:37:00,63.8,59.9,29.76,ENE,72,1.0,2.0,87,0.00,,---,0.02,VWS V14.01,2013-03-23 01:37:00,
2013-03-22 20:42:00,63.8,59.9,29.76,SE,125,0.0,2.0,87,0.00,,---,0.02,VWS V14.01,2013-03-23 01:42:00,
2013-03-22 20:47:00,63.8,59.9,29.76,SE,127,1.0,2.0,87,0.00,,---,0.02,VWS V14.01,2013-03-23 01:47:00,
2013-03-22 20:52:00,63.8,59.9,29.76,ESE,117,1.0,4.0,87,0.00,,---,0.02,VWS V14.01,2013-03-23 01:52:00,
2013-03-22 20:57:00,63.8,60.2,29.76,SE,137,0.0,4.0,88,0.00,,---,0.02,VWS V14.01,2013-03-23 01:57:00,
2013-03-22 21:02:00,63.7,60.1,29.76,ESE,123,0.0,4.0,88,0.00,,---,0.02,VWS V14.01,2013-03-23 02:02:00,
2013-03-22 21:07:00,63.7,60.1,29.76,SE,145,0.0,2.0,88,0.00,,---,0.02,VWS V14.01,2013-03-23 02:07:00,
2013-03-22 21:12:00,63.6,60.0,29.76,SE,145,1.0,2.0,88,0.00,,---,0.02,VWS V14.01,2013-03-23 02:12:00,
2013-03-22 21:17:00,63.6,60.0,29.76,ESE,110,0.0,2.0,88,0.00,,---,0.02,VWS V14.01,2013-03-23 02:17:00,
2013-03-22 21:22:00,63.6,60.0,29.77,SE,135,0.0,2.0,88,0.00,,---,0.02,VWS V14.01,2013-03-23 02:22:00,
2013-03-22 21:27:00,63.6,60.0,29.76,NE,44,2.0,2.0,88,0.00,,---,0.02,VWS V14.01,2013-03-23 02:27:00,
2013-03-22 21:32:00,63.5,59.9,29.76,SE,135,1.0,3.0,88,0.00,,---,0.02,VWS V14.01,2013-03-23 02:32:00,
2013-03-22 21:37:00,63.4,60.1,29.76,East,81,0.0,2.0,89,0.00,,---,0.02,VWS V14.01,2013-03-23 02:37:00,
2013-03-22 21:42:00,63.4,60.1,29.76,East,90,0.0,3.0,89,0.00,,---,0.02,VWS V14.01,2013-03-23 02:42:00,
2013-03-22 21:47:00,63.3,60.0,29.77,East,97,0.0,3.0,89,0.00,,---,0.02,VWS V14.01,2013-03-23 02:47:00,
2013-03-22 21:52:00,63.3,60.0,29.77,East,79,1.0,3.0,89,0.00,,---,0.02,VWS V14.01,2013-03-23 02:52:00,
2013-03-22 21:57:00,63.2,59.9,29.77,ESE,117,0.0,4.0,89,0.00,,---,0.02,VWS V14.01,2013-03-23 02:57:00,
2013-03-22 22:02:00,63.2,59.9,29.77,ESE,109,2.0,4.0,89,0.00,,---,0.02,VWS V14.01,2013-03-23 03:02:00,
2013-03-22 22:07:00,63.2,59.9,29.77,East,90,1.0,2.0,89,0.00,,---,0.02,VWS V14.01,2013-03-23 03:07:00,
2013-03-22 22:12:00,63.2,59.9,29.77,South,174,2.0,2.0,89,0.00,,---,0.02,VWS V14.01,2013-03-23 03:12:00,
2013-03-22 22:17:00,63.2,59.9,29.77,SSW,200,1.0,3.0,89,0.00,,---,0.02,VWS V14.01,2013-03-23 03:17:00,
2013-03-22 22:22:00,63.2,59.9,29.77,SE,136,0.0,3.0,89,0.00,,---,0.02,VWS V14.01,2013-03-23 03:22:00,
2013-03-22 22:27:00,63.1,60.1,29.77,ESE,120,0.0,3.0,90,0.00,,---,0.02,VWS V14.01,2013-03-23 03:27:00,
2013-03-22 22:32:00,63.1,60.1,29.78,SE,134,0.0,3.0,90,0.00,,---,0.02,VWS V14.01,2013-03-23 03:32:00,
2013-03-22 22:37:00,63.2,60.2,29.78,SE,141,1.0,3.0,90,0.00,,---,0.02,VWS V14.01,2013-03-23 03:37:00,
2013-03-22 22:42:00,63.3,60.3,29.78,SE,129,0.0,3.0,90,0.00,,---,0.02,VWS V14.01,2013-03-23 03:42:00,
2013-03-22 22:47:00,63.4,60.1,29.78,East,88,0.0,3.0,89,0.00,,---,0.02,VWS V14.01,2013-03-23 03:47:00,
2013-03-22 22:52:00,63.4,60.1,29.78,ESE,105,1.0,3.0,89,0.00,,---,0.02,VWS V14.01,2013-03-23 03:52:00,
2013-03-22 22:57:00,63.4,60.1,29.78,ESE,113,0.0,3.0,89,0.00,,---,0.02,VWS V14.01,2013-03-23 03:57:00,
2013-03-22 23:00:00,63.4,60.1,29.78,SE,138,1.0,3.0,89,0.00,,---,0.02,VWS V14.01,2013-03-23 04:00:00,
2013-03-22 23:05:00,63.5,60.2,29.78,SE,128,0.0,1.0,89,0.00,,---,0.02,VWS V14.01,2013-03-23 04:05:00,
2013-03-22 23:10:00,63.5,60.2,29.78,SE,136,0.0,2.0,89,0.00,,---,0.02,VWS V14.01,2013-03-23 04:10:00,
2013-03-22 23:15:00,63.5,60.2,29.79,ESE,120,0.0,2.0,89,0.00,,---,0.02,VWS V14.01,2013-03-23 04:15:00,
2013-03-22 23:20:00,63.5,60.2,29.78,ENE,63,1.0,2.0,89,0.00,,---,0.02,VWS V14.01,2013-03-23 04:20:00,
2013-03-22 23:25:00,63.5,60.2,29.78,East,94,0.0,3.0,89,0.00,,---,0.02,VWS V14.01,2013-03-23 04:25:00,
2013-03-22 23:30:00,63.5,60.2,29.78,East,100,0.0,3.0,89,0.00,,---,0.02,VWS V14.01,2013-03-23 04:30:00,
2013-03-22 23:35:00,63.5,60.2,29.78,ESE,106,2.0,2.0,89,0.00,,---,0.02,VWS V14.01,2013-03-23 04:35:00,
2013-03-22 23:40:00,63.5,60.2,29.79,SE,125,0.0,2.0,89,0.00,,---,0.02,VWS V14.01,2013-03-23 04:40:00,
2013-03-22 23:45:00,63.5,60.2,29.79,SE,135,0.0,2.0,89,0.00,,---,0.02,VWS V14.01,2013-03-23 04:45:00,
2013-03-22 23:50:00,63.5,60.2,29.79,SE,136,0.0,2.0,89,0.00,,---,0.02,VWS V14.01,2013-03-23 04:50:00,
2013-03-22 23:55:00,63.4,60.1,29.79,ESE,113,0.0,2.0,89,0.00,,---,0.02,VWS V14.01,2013-03-23 04:55:00,